sensor_id;sensor_type;location;lat;lon;timestamp;temperature;humidity
14473;DHT22;7322;50.872;4.386;2023-05-10T00:02:20;22.60;99.90
14473;DHT22;7322;50.872;4.386;2023-05-10T00:04:50;22.70;99.90
14473;DHT22;7322;50.872;4.386;2023-05-10T00:07:17;22.60;99.90
14473;DHT22;7322;50.872;4.386;2023-05-10T00:09:45;22.60;99.90
14473;DHT22;7322;50.872;4.386;2023-05-10T00:12:11;22.50;99.90
14473;DHT22;7322;50.872;4.386;2023-05-10T00:14:39;22.60;99.90
14473;DHT22;7322;50.872;4.386;2023-05-10T00:17:07;22.50;99.90
14473;DHT22;7322;50.872;4.386;2023-05-10T00:19:34;22.60;99.90
14473;DHT22;7322;50.872;4.386;2023-05-10T00:22:04;22.60;99.90
14473;DHT22;7322;50.872;4.386;2023-05-10T00:24:31;22.60;99.90
14473;DHT22;7322;50.872;4.386;2023-05-10T00:26:58;22.50;99.90
14473;DHT22;7322;50.872;4.386;2023-05-10T00:29:27;22.50;99.90
14473;DHT22;7322;50.872;4.386;2023-05-10T00:31:56;22.60;99.90
14473;DHT22;7322;50.872;4.386;2023-05-10T00:34:24;22.60;99.90
14473;DHT22;7322;50.872;4.386;2023-05-10T00:36:52;22.50;99.90
14473;DHT22;7322;50.872;4.386;2023-05-10T00:39:21;22.60;99.90
14473;DHT22;7322;50.872;4.386;2023-05-10T00:41:49;22.60;99.90
14473;DHT22;7322;50.872;4.386;2023-05-10T00:44:16;22.60;99.90
14473;DHT22;7322;50.872;4.386;2023-05-10T00:46:44;22.70;99.90
14473;DHT22;7322;50.872;4.386;2023-05-10T00:49:12;22.60;99.90
14473;DHT22;7322;50.872;4.386;2023-05-10T00:51:40;22.60;99.90
14473;DHT22;7322;50.872;4.386;2023-05-10T00:54:08;22.60;99.90
14473;DHT22;7322;50.872;4.386;2023-05-10T00:56:38;22.60;99.90
14473;DHT22;7322;50.872;4.386;2023-05-10T00:59:05;22.60;99.90
14473;DHT22;7322;50.872;4.386;2023-05-10T01:01:32;22.60;99.90
14473;DHT22;7322;50.872;4.386;2023-05-10T01:03:59;22.60;99.90
14473;DHT22;7322;50.872;4.386;2023-05-10T01:06:26;22.60;99.90
14473;DHT22;7322;50.872;4.386;2023-05-10T01:08:54;22.60;99.90
14473;DHT22;7322;50.872;4.386;2023-05-10T01:11:23;22.60;99.90
14473;DHT22;7322;50.872;4.386;2023-05-10T01:13:55;22.60;99.90
14473;DHT22;7322;50.872;4.386;2023-05-10T01:16:24;22.60;99.90
14473;DHT22;7322;50.872;4.386;2023-05-10T01:18:52;22.70;99.90
14473;DHT22;7322;50.872;4.386;2023-05-10T01:21:29;22.60;99.90
14473;DHT22;7322;50.872;4.386;2023-05-10T01:24:37;22.50;99.90
14473;DHT22;7322;50.872;4.386;2023-05-10T01:27:36;22.60;99.90
14473;DHT22;7322;50.872;4.386;2023-05-10T01:30:24;22.60;99.90
14473;DHT22;7322;50.872;4.386;2023-05-10T01:33:00;22.50;99.90
14473;DHT22;7322;50.872;4.386;2023-05-10T01:35:34;22.50;99.90
14473;DHT22;7322;50.872;4.386;2023-05-10T01:38:07;22.50;99.90
14473;DHT22;7322;50.872;4.386;2023-05-10T01:40:48;22.50;99.90
14473;DHT22;7322;50.872;4.386;2023-05-10T01:43:22;22.60;99.90
14473;DHT22;7322;50.872;4.386;2023-05-10T01:45:59;22.60;99.90
14473;DHT22;7322;50.872;4.386;2023-05-10T01:48:33;22.60;99.90
14473;DHT22;7322;50.872;4.386;2023-05-10T01:51:02;22.50;99.90
14473;DHT22;7322;50.872;4.386;2023-05-10T01:53:31;22.50;99.90
14473;DHT22;7322;50.872;4.386;2023-05-10T01:56:00;22.50;99.90
14473;DHT22;7322;50.872;4.386;2023-05-10T01:58:32;22.60;99.90
14473;DHT22;7322;50.872;4.386;2023-05-10T02:01:03;22.60;99.90
14473;DHT22;7322;50.872;4.386;2023-05-10T02:03:38;22.60;99.90
14473;DHT22;7322;50.872;4.386;2023-05-10T02:06:07;22.60;99.90
14473;DHT22;7322;50.872;4.386;2023-05-10T02:08:37;22.60;99.90
14473;DHT22;7322;50.872;4.386;2023-05-10T02:11:07;22.50;99.90
14473;DHT22;7322;50.872;4.386;2023-05-10T02:13:37;22.50;99.90
14473;DHT22;7322;50.872;4.386;2023-05-10T02:16:05;22.50;99.90
14473;DHT22;7322;50.872;4.386;2023-05-10T02:18:36;22.40;99.90
14473;DHT22;7322;50.872;4.386;2023-05-10T02:21:03;22.50;99.90
14473;DHT22;7322;50.872;4.386;2023-05-10T02:23:32;22.50;99.90
14473;DHT22;7322;50.872;4.386;2023-05-10T02:26:00;22.50;99.90
14473;DHT22;7322;50.872;4.386;2023-05-10T02:28:29;22.50;99.90
14473;DHT22;7322;50.872;4.386;2023-05-10T02:30:57;22.50;99.90
14473;DHT22;7322;50.872;4.386;2023-05-10T02:33:25;22.50;99.90
14473;DHT22;7322;50.872;4.386;2023-05-10T02:35:55;22.50;99.90
14473;DHT22;7322;50.872;4.386;2023-05-10T02:38:25;22.50;99.90
14473;DHT22;7322;50.872;4.386;2023-05-10T02:40:54;22.40;99.90
14473;DHT22;7322;50.872;4.386;2023-05-10T02:43:24;22.50;99.90
14473;DHT22;7322;50.872;4.386;2023-05-10T02:45:52;22.50;99.90
14473;DHT22;7322;50.872;4.386;2023-05-10T02:48:19;22.40;99.90
14473;DHT22;7322;50.872;4.386;2023-05-10T02:50:47;22.40;99.90
14473;DHT22;7322;50.872;4.386;2023-05-10T02:53:21;22.50;99.90
14473;DHT22;7322;50.872;4.386;2023-05-10T02:55:52;22.50;99.90
14473;DHT22;7322;50.872;4.386;2023-05-10T02:58:21;22.50;99.90
14473;DHT22;7322;50.872;4.386;2023-05-10T03:00:50;22.50;99.90
14473;DHT22;7322;50.872;4.386;2023-05-10T03:03:17;22.50;99.90
14473;DHT22;7322;50.872;4.386;2023-05-10T03:05:45;22.40;99.90
14473;DHT22;7322;50.872;4.386;2023-05-10T03:08:12;22.40;99.90
14473;DHT22;7322;50.872;4.386;2023-05-10T03:10:55;22.40;99.90
14473;DHT22;7322;50.872;4.386;2023-05-10T03:13:32;22.50;99.90
14473;DHT22;7322;50.872;4.386;2023-05-10T03:16:07;22.40;99.90
14473;DHT22;7322;50.872;4.386;2023-05-10T03:18:42;22.40;99.90
14473;DHT22;7322;50.872;4.386;2023-05-10T03:21:12;22.50;99.90
14473;DHT22;7322;50.872;4.386;2023-05-10T03:23:43;22.40;99.90
14473;DHT22;7322;50.872;4.386;2023-05-10T03:26:17;22.30;99.90
14473;DHT22;7322;50.872;4.386;2023-05-10T03:28:53;22.30;99.90
14473;DHT22;7322;50.872;4.386;2023-05-10T03:31:21;22.30;99.90
14473;DHT22;7322;50.872;4.386;2023-05-10T03:33:49;22.40;99.90
14473;DHT22;7322;50.872;4.386;2023-05-10T03:36:17;22.40;99.90
14473;DHT22;7322;50.872;4.386;2023-05-10T03:38:45;22.40;99.90
14473;DHT22;7322;50.872;4.386;2023-05-10T03:41:14;22.30;99.90
14473;DHT22;7322;50.872;4.386;2023-05-10T03:43:42;22.30;99.90
14473;DHT22;7322;50.872;4.386;2023-05-10T03:46:09;22.30;99.90
14473;DHT22;7322;50.872;4.386;2023-05-10T03:48:36;22.30;99.90
14473;DHT22;7322;50.872;4.386;2023-05-10T03:51:03;22.30;99.90
14473;DHT22;7322;50.872;4.386;2023-05-10T03:53:30;22.40;99.90
14473;DHT22;7322;50.872;4.386;2023-05-10T03:55:58;22.40;99.90
14473;DHT22;7322;50.872;4.386;2023-05-10T03:58:26;22.40;99.90
14473;DHT22;7322;50.872;4.386;2023-05-10T04:00:53;22.40;99.90
14473;DHT22;7322;50.872;4.386;2023-05-10T04:03:20;22.40;99.90
14473;DHT22;7322;50.872;4.386;2023-05-10T04:05:48;22.40;99.90
14473;DHT22;7322;50.872;4.386;2023-05-10T04:08:15;22.40;99.90
14473;DHT22;7322;50.872;4.386;2023-05-10T04:10:42;22.40;99.90
14473;DHT22;7322;50.872;4.386;2023-05-10T04:13:09;22.40;99.90
14473;DHT22;7322;50.872;4.386;2023-05-10T04:15:38;22.40;99.90
14473;DHT22;7322;50.872;4.386;2023-05-10T04:18:05;22.40;99.90
14473;DHT22;7322;50.872;4.386;2023-05-10T04:20:32;22.40;99.90
14473;DHT22;7322;50.872;4.386;2023-05-10T04:22:59;22.40;99.90
14473;DHT22;7322;50.872;4.386;2023-05-10T04:25:26;22.40;99.90
14473;DHT22;7322;50.872;4.386;2023-05-10T04:27:53;22.40;99.90
14473;DHT22;7322;50.872;4.386;2023-05-10T04:30:21;22.40;99.90
14473;DHT22;7322;50.872;4.386;2023-05-10T04:32:49;22.40;99.90
14473;DHT22;7322;50.872;4.386;2023-05-10T04:35:16;22.40;99.90
14473;DHT22;7322;50.872;4.386;2023-05-10T04:37:43;22.40;99.90
14473;DHT22;7322;50.872;4.386;2023-05-10T04:40:10;22.40;99.90
14473;DHT22;7322;50.872;4.386;2023-05-10T04:42:40;22.40;99.90
14473;DHT22;7322;50.872;4.386;2023-05-10T04:45:09;22.40;99.90
14473;DHT22;7322;50.872;4.386;2023-05-10T04:47:36;22.30;99.90
14473;DHT22;7322;50.872;4.386;2023-05-10T04:50:06;22.40;99.90
14473;DHT22;7322;50.872;4.386;2023-05-10T04:52:33;22.40;99.90
14473;DHT22;7322;50.872;4.386;2023-05-10T04:55:01;22.40;99.90
14473;DHT22;7322;50.872;4.386;2023-05-10T04:57:28;22.50;99.90
14473;DHT22;7322;50.872;4.386;2023-05-10T04:59:55;22.50;99.90
14473;DHT22;7322;50.872;4.386;2023-05-10T05:02:22;22.50;99.90
14473;DHT22;7322;50.872;4.386;2023-05-10T05:04:49;22.40;99.90
14473;DHT22;7322;50.872;4.386;2023-05-10T05:07:18;22.40;99.90
14473;DHT22;7322;50.872;4.386;2023-05-10T05:09:44;22.50;99.90
14473;DHT22;7322;50.872;4.386;2023-05-10T05:12:13;22.60;99.90
14473;DHT22;7322;50.872;4.386;2023-05-10T05:14:40;22.50;99.90
14473;DHT22;7322;50.872;4.386;2023-05-10T05:17:15;22.50;99.90
14473;DHT22;7322;50.872;4.386;2023-05-10T05:19:43;22.50;99.90
14473;DHT22;7322;50.872;4.386;2023-05-10T05:22:12;22.60;99.90
14473;DHT22;7322;50.872;4.386;2023-05-10T05:24:46;22.60;99.90
14473;DHT22;7322;50.872;4.386;2023-05-10T05:27:14;22.60;99.90
14473;DHT22;7322;50.872;4.386;2023-05-10T05:29:41;22.60;99.90
14473;DHT22;7322;50.872;4.386;2023-05-10T05:32:09;22.60;99.90
14473;DHT22;7322;50.872;4.386;2023-05-10T05:34:39;22.60;99.90
14473;DHT22;7322;50.872;4.386;2023-05-10T05:37:31;22.60;99.90
14473;DHT22;7322;50.872;4.386;2023-05-10T05:40:01;22.60;99.90
14473;DHT22;7322;50.872;4.386;2023-05-10T05:42:41;22.60;99.90
14473;DHT22;7322;50.872;4.386;2023-05-10T05:45:15;22.60;99.90
14473;DHT22;7322;50.872;4.386;2023-05-10T05:47:43;22.60;99.90
14473;DHT22;7322;50.872;4.386;2023-05-10T05:50:15;22.50;99.90
14473;DHT22;7322;50.872;4.386;2023-05-10T05:52:51;22.50;99.90
14473;DHT22;7322;50.872;4.386;2023-05-10T05:55:23;22.50;99.90
14473;DHT22;7322;50.872;4.386;2023-05-10T05:57:51;22.60;99.90
14473;DHT22;7322;50.872;4.386;2023-05-10T06:00:29;22.50;99.90
14473;DHT22;7322;50.872;4.386;2023-05-10T06:03:03;22.60;99.90
14473;DHT22;7322;50.872;4.386;2023-05-10T06:05:30;22.70;99.90
14473;DHT22;7322;50.872;4.386;2023-05-10T06:07:59;22.60;99.90
14473;DHT22;7322;50.872;4.386;2023-05-10T06:10:28;22.70;99.90
14473;DHT22;7322;50.872;4.386;2023-05-10T06:12:56;22.70;99.90
14473;DHT22;7322;50.872;4.386;2023-05-10T06:15:24;22.70;99.90
14473;DHT22;7322;50.872;4.386;2023-05-10T06:18:04;22.70;99.90
14473;DHT22;7322;50.872;4.386;2023-05-10T06:20:31;22.70;99.90
14473;DHT22;7322;50.872;4.386;2023-05-10T06:23:09;22.70;99.90
14473;DHT22;7322;50.872;4.386;2023-05-10T06:25:48;22.80;99.90
14473;DHT22;7322;50.872;4.386;2023-05-10T06:28:22;22.80;99.90
14473;DHT22;7322;50.872;4.386;2023-05-10T06:30:59;22.80;99.90
14473;DHT22;7322;50.872;4.386;2023-05-10T06:33:27;22.70;99.90
14473;DHT22;7322;50.872;4.386;2023-05-10T06:36:04;22.70;99.90
14473;DHT22;7322;50.872;4.386;2023-05-10T06:38:39;22.70;99.90
14473;DHT22;7322;50.872;4.386;2023-05-10T06:41:17;22.70;99.90
14473;DHT22;7322;50.872;4.386;2023-05-10T06:43:44;22.80;99.90
14473;DHT22;7322;50.872;4.386;2023-05-10T06:46:11;22.70;99.90
14473;DHT22;7322;50.872;4.386;2023-05-10T06:48:45;22.70;99.90
14473;DHT22;7322;50.872;4.386;2023-05-10T06:51:18;22.60;99.90
14473;DHT22;7322;50.872;4.386;2023-05-10T06:53:47;22.70;99.90
14473;DHT22;7322;50.872;4.386;2023-05-10T06:56:17;22.60;99.90
14473;DHT22;7322;50.872;4.386;2023-05-10T06:58:47;22.60;99.90
14473;DHT22;7322;50.872;4.386;2023-05-10T07:01:26;22.70;99.90
14473;DHT22;7322;50.872;4.386;2023-05-10T07:04:13;22.70;99.90
14473;DHT22;7322;50.872;4.386;2023-05-10T07:06:48;22.70;99.90
14473;DHT22;7322;50.872;4.386;2023-05-10T07:09:21;22.70;99.90
14473;DHT22;7322;50.872;4.386;2023-05-10T07:11:51;22.60;99.90
14473;DHT22;7322;50.872;4.386;2023-05-10T07:14:18;22.60;99.90
14473;DHT22;7322;50.872;4.386;2023-05-10T07:16:46;22.60;99.90
14473;DHT22;7322;50.872;4.386;2023-05-10T07:19:13;22.70;99.90
14473;DHT22;7322;50.872;4.386;2023-05-10T07:21:45;22.70;99.90
14473;DHT22;7322;50.872;4.386;2023-05-10T07:24:12;22.60;99.90
14473;DHT22;7322;50.872;4.386;2023-05-10T07:26:46;22.50;99.90
14473;DHT22;7322;50.872;4.386;2023-05-10T07:29:16;22.60;99.90
14473;DHT22;7322;50.872;4.386;2023-05-10T07:31:45;22.60;99.90
14473;DHT22;7322;50.872;4.386;2023-05-10T07:34:14;22.50;99.90
14473;DHT22;7322;50.872;4.386;2023-05-10T07:36:41;22.50;99.90
14473;DHT22;7322;50.872;4.386;2023-05-10T07:39:14;22.60;99.90
14473;DHT22;7322;50.872;4.386;2023-05-10T07:41:42;22.50;99.90
14473;DHT22;7322;50.872;4.386;2023-05-10T07:44:17;22.50;99.90
14473;DHT22;7322;50.872;4.386;2023-05-10T07:46:47;22.50;99.90
14473;DHT22;7322;50.872;4.386;2023-05-10T07:49:14;22.50;99.90
14473;DHT22;7322;50.872;4.386;2023-05-10T07:51:42;22.50;99.90
14473;DHT22;7322;50.872;4.386;2023-05-10T07:54:15;22.50;99.90
14473;DHT22;7322;50.872;4.386;2023-05-10T07:56:45;22.50;99.90
14473;DHT22;7322;50.872;4.386;2023-05-10T07:59:26;22.40;99.90
14473;DHT22;7322;50.872;4.386;2023-05-10T08:01:59;22.40;99.90
14473;DHT22;7322;50.872;4.386;2023-05-10T08:04:35;22.40;99.90
14473;DHT22;7322;50.872;4.386;2023-05-10T08:07:03;22.40;99.90
14473;DHT22;7322;50.872;4.386;2023-05-10T08:09:38;22.40;99.90
14473;DHT22;7322;50.872;4.386;2023-05-10T08:12:15;22.40;99.90
14473;DHT22;7322;50.872;4.386;2023-05-10T08:14:46;22.50;99.90
14473;DHT22;7322;50.872;4.386;2023-05-10T08:17:15;22.50;99.90
14473;DHT22;7322;50.872;4.386;2023-05-10T08:19:44;22.50;99.90
14473;DHT22;7322;50.872;4.386;2023-05-10T08:22:15;22.50;99.90
14473;DHT22;7322;50.872;4.386;2023-05-10T08:24:46;22.50;99.90
14473;DHT22;7322;50.872;4.386;2023-05-10T08:27:19;22.50;99.90
14473;DHT22;7322;50.872;4.386;2023-05-10T08:30:01;22.60;99.90
14473;DHT22;7322;50.872;4.386;2023-05-10T08:32:34;22.60;99.90
14473;DHT22;7322;50.872;4.386;2023-05-10T08:35:33;22.60;99.90
14473;DHT22;7322;50.872;4.386;2023-05-10T08:38:06;22.50;99.90
14473;DHT22;7322;50.872;4.386;2023-05-10T08:40:46;22.50;99.90
14473;DHT22;7322;50.872;4.386;2023-05-10T08:43:16;22.60;99.90
14473;DHT22;7322;50.872;4.386;2023-05-10T08:45:45;22.70;99.90
14473;DHT22;7322;50.872;4.386;2023-05-10T08:48:15;22.70;99.90
14473;DHT22;7322;50.872;4.386;2023-05-10T08:53:53;22.80;99.90
14473;DHT22;7322;50.872;4.386;2023-05-10T08:56:27;22.70;99.90
14473;DHT22;7322;50.872;4.386;2023-05-10T08:58:56;22.70;99.90
14473;DHT22;7322;50.872;4.386;2023-05-10T09:01:28;22.70;99.90
14473;DHT22;7322;50.872;4.386;2023-05-10T09:04:03;22.70;99.90
14473;DHT22;7322;50.872;4.386;2023-05-10T09:06:30;22.70;99.90
14473;DHT22;7322;50.872;4.386;2023-05-10T09:08:59;22.70;99.90
14473;DHT22;7322;50.872;4.386;2023-05-10T09:11:28;22.70;99.90
14473;DHT22;7322;50.872;4.386;2023-05-10T09:13:55;22.70;99.90
14473;DHT22;7322;50.872;4.386;2023-05-10T09:16:24;22.70;99.90
14473;DHT22;7322;50.872;4.386;2023-05-10T09:18:55;22.70;99.90
14473;DHT22;7322;50.872;4.386;2023-05-10T09:21:23;22.60;99.90
14473;DHT22;7322;50.872;4.386;2023-05-10T09:24:03;22.60;99.90
14473;DHT22;7322;50.872;4.386;2023-05-10T09:26:46;22.70;99.90
14473;DHT22;7322;50.872;4.386;2023-05-10T09:29:14;22.70;99.90
14473;DHT22;7322;50.872;4.386;2023-05-10T09:31:47;22.70;99.90
14473;DHT22;7322;50.872;4.386;2023-05-10T09:34:20;22.70;99.90
14473;DHT22;7322;50.872;4.386;2023-05-10T09:37:01;22.70;99.90
14473;DHT22;7322;50.872;4.386;2023-05-10T09:39:44;22.70;99.90
14473;DHT22;7322;50.872;4.386;2023-05-10T09:42:12;22.70;99.90
14473;DHT22;7322;50.872;4.386;2023-05-10T09:44:40;22.70;99.90
14473;DHT22;7322;50.872;4.386;2023-05-10T09:47:17;22.60;99.90
14473;DHT22;7322;50.872;4.386;2023-05-10T09:49:49;22.70;99.90
14473;DHT22;7322;50.872;4.386;2023-05-10T09:52:25;22.70;99.90
14473;DHT22;7322;50.872;4.386;2023-05-10T09:54:53;22.70;99.90
14473;DHT22;7322;50.872;4.386;2023-05-10T09:57:21;22.70;99.90
14473;DHT22;7322;50.872;4.386;2023-05-10T09:59:48;22.70;99.90
14473;DHT22;7322;50.872;4.386;2023-05-10T10:02:16;22.70;99.90
14473;DHT22;7322;50.872;4.386;2023-05-10T10:04:49;22.70;99.90
14473;DHT22;7322;50.872;4.386;2023-05-10T10:07:27;22.70;99.90
14473;DHT22;7322;50.872;4.386;2023-05-10T10:09:54;22.70;99.90
14473;DHT22;7322;50.872;4.386;2023-05-10T10:12:22;22.70;99.90
14473;DHT22;7322;50.872;4.386;2023-05-10T10:14:49;22.70;99.90
14473;DHT22;7322;50.872;4.386;2023-05-10T10:17:17;22.70;99.90
14473;DHT22;7322;50.872;4.386;2023-05-10T10:19:54;22.70;99.90
14473;DHT22;7322;50.872;4.386;2023-05-10T10:22:22;22.70;99.90
14473;DHT22;7322;50.872;4.386;2023-05-10T10:24:51;22.60;99.90
14473;DHT22;7322;50.872;4.386;2023-05-10T10:27:24;22.60;99.90
14473;DHT22;7322;50.872;4.386;2023-05-10T10:30:02;22.70;99.90
14473;DHT22;7322;50.872;4.386;2023-05-10T10:32:42;22.70;99.90
14473;DHT22;7322;50.872;4.386;2023-05-10T10:35:17;22.70;99.90
14473;DHT22;7322;50.872;4.386;2023-05-10T10:37:47;22.70;99.90
14473;DHT22;7322;50.872;4.386;2023-05-10T10:40:31;22.80;99.90
14473;DHT22;7322;50.872;4.386;2023-05-10T10:43:21;22.80;99.90
14473;DHT22;7322;50.872;4.386;2023-05-10T10:46:14;22.80;99.90
14473;DHT22;7322;50.872;4.386;2023-05-10T10:48:48;22.80;99.90
14473;DHT22;7322;50.872;4.386;2023-05-10T10:51:16;22.70;99.90
14473;DHT22;7322;50.872;4.386;2023-05-10T10:53:47;22.80;99.90
14473;DHT22;7322;50.872;4.386;2023-05-10T10:56:22;22.70;99.90
14473;DHT22;7322;50.872;4.386;2023-05-10T10:58:59;22.80;99.90
14473;DHT22;7322;50.872;4.386;2023-05-10T11:01:41;22.80;99.90
14473;DHT22;7322;50.872;4.386;2023-05-10T11:04:24;22.80;99.90
14473;DHT22;7322;50.872;4.386;2023-05-10T11:07:16;22.80;99.90
14473;DHT22;7322;50.872;4.386;2023-05-10T11:09:44;22.90;99.90
14473;DHT22;7322;50.872;4.386;2023-05-10T11:12:14;22.80;99.90
14473;DHT22;7322;50.872;4.386;2023-05-10T11:14:50;22.80;99.90
14473;DHT22;7322;50.872;4.386;2023-05-10T11:17:26;22.80;99.90
14473;DHT22;7322;50.872;4.386;2023-05-10T11:20:13;22.80;99.90
14473;DHT22;7322;50.872;4.386;2023-05-10T11:22:52;22.80;99.90
14473;DHT22;7322;50.872;4.386;2023-05-10T11:25:22;22.80;99.90
14473;DHT22;7322;50.872;4.386;2023-05-10T11:27:53;22.80;99.90
14473;DHT22;7322;50.872;4.386;2023-05-10T11:30:26;22.80;99.90
14473;DHT22;7322;50.872;4.386;2023-05-10T11:32:54;22.80;99.90
14473;DHT22;7322;50.872;4.386;2023-05-10T11:35:41;22.70;99.90
14473;DHT22;7322;50.872;4.386;2023-05-10T11:38:13;22.80;99.90
14473;DHT22;7322;50.872;4.386;2023-05-10T11:40:41;22.70;99.90
14473;DHT22;7322;50.872;4.386;2023-05-10T11:43:10;22.70;99.90
14473;DHT22;7322;50.872;4.386;2023-05-10T11:45:38;22.70;99.90
14473;DHT22;7322;50.872;4.386;2023-05-10T11:48:21;22.70;99.90
14473;DHT22;7322;50.872;4.386;2023-05-10T11:50:51;22.70;99.90
14473;DHT22;7322;50.872;4.386;2023-05-10T11:53:25;22.70;99.90
14473;DHT22;7322;50.872;4.386;2023-05-10T11:55:52;22.70;99.90
14473;DHT22;7322;50.872;4.386;2023-05-10T11:58:20;22.70;99.90
14473;DHT22;7322;50.872;4.386;2023-05-10T12:00:54;22.70;99.90
14473;DHT22;7322;50.872;4.386;2023-05-10T12:03:26;22.70;99.90
14473;DHT22;7322;50.872;4.386;2023-05-10T12:05:54;22.80;99.90
14473;DHT22;7322;50.872;4.386;2023-05-10T12:08:25;22.80;99.90
14473;DHT22;7322;50.872;4.386;2023-05-10T12:11:04;22.90;99.90
14473;DHT22;7322;50.872;4.386;2023-05-10T12:13:38;22.90;99.90
14473;DHT22;7322;50.872;4.386;2023-05-10T12:16:16;23.00;99.90
14473;DHT22;7322;50.872;4.386;2023-05-10T12:18:48;23.00;99.90
14473;DHT22;7322;50.872;4.386;2023-05-10T12:21:19;23.00;99.90
14473;DHT22;7322;50.872;4.386;2023-05-10T12:23:50;23.00;99.90
14473;DHT22;7322;50.872;4.386;2023-05-10T12:26:30;23.10;99.90
14473;DHT22;7322;50.872;4.386;2023-05-10T12:29:12;23.10;99.90
14473;DHT22;7322;50.872;4.386;2023-05-10T12:32:01;23.10;99.90
14473;DHT22;7322;50.872;4.386;2023-05-10T12:34:31;23.10;99.90
14473;DHT22;7322;50.872;4.386;2023-05-10T12:36:59;23.10;99.90
14473;DHT22;7322;50.872;4.386;2023-05-10T12:39:38;23.10;99.90
14473;DHT22;7322;50.872;4.386;2023-05-10T12:42:14;23.20;99.90
14473;DHT22;7322;50.872;4.386;2023-05-10T12:44:42;23.20;99.90
14473;DHT22;7322;50.872;4.386;2023-05-10T12:47:10;23.20;99.90
14473;DHT22;7322;50.872;4.386;2023-05-10T12:49:38;23.20;99.90
14473;DHT22;7322;50.872;4.386;2023-05-10T12:52:18;23.20;99.90
14473;DHT22;7322;50.872;4.386;2023-05-10T12:54:47;23.30;99.90
14473;DHT22;7322;50.872;4.386;2023-05-10T12:57:15;23.30;99.90
14473;DHT22;7322;50.872;4.386;2023-05-10T13:00:07;23.30;99.90
14473;DHT22;7322;50.872;4.386;2023-05-10T13:02:34;23.30;99.90
14473;DHT22;7322;50.872;4.386;2023-05-10T13:08:43;23.40;99.90
14473;DHT22;7322;50.872;4.386;2023-05-10T13:11:17;23.30;99.90
14473;DHT22;7322;50.872;4.386;2023-05-10T13:13:46;23.30;99.90
14473;DHT22;7322;50.872;4.386;2023-05-10T13:16:13;23.30;99.90
14473;DHT22;7322;50.872;4.386;2023-05-10T13:18:41;23.40;99.90
14473;DHT22;7322;50.872;4.386;2023-05-10T13:21:08;23.40;99.90
14473;DHT22;7322;50.872;4.386;2023-05-10T13:23:36;23.40;99.90
14473;DHT22;7322;50.872;4.386;2023-05-10T13:26:03;23.40;99.90
14473;DHT22;7322;50.872;4.386;2023-05-10T13:28:38;23.40;99.90
14473;DHT22;7322;50.872;4.386;2023-05-10T13:31:16;23.50;99.90
14473;DHT22;7322;50.872;4.386;2023-05-10T13:33:46;23.50;99.90
14473;DHT22;7322;50.872;4.386;2023-05-10T13:36:27;23.50;99.90
14473;DHT22;7322;50.872;4.386;2023-05-10T13:39:10;23.50;99.90
14473;DHT22;7322;50.872;4.386;2023-05-10T13:41:46;23.50;99.90
14473;DHT22;7322;50.872;4.386;2023-05-10T13:44:14;23.50;99.90
14473;DHT22;7322;50.872;4.386;2023-05-10T13:46:48;23.50;99.90
14473;DHT22;7322;50.872;4.386;2023-05-10T13:49:15;23.50;99.90
14473;DHT22;7322;50.872;4.386;2023-05-10T13:51:45;23.50;99.90
14473;DHT22;7322;50.872;4.386;2023-05-10T13:54:29;23.50;99.90
14473;DHT22;7322;50.872;4.386;2023-05-10T13:57:06;23.50;99.90
14473;DHT22;7322;50.872;4.386;2023-05-10T13:59:58;23.50;99.90
14473;DHT22;7322;50.872;4.386;2023-05-10T14:02:49;23.50;99.90
14473;DHT22;7322;50.872;4.386;2023-05-10T14:05:16;23.50;99.90
14473;DHT22;7322;50.872;4.386;2023-05-10T14:07:46;23.50;99.90
14473;DHT22;7322;50.872;4.386;2023-05-10T14:10:16;23.50;99.90
14473;DHT22;7322;50.872;4.386;2023-05-10T14:12:44;23.50;99.90
14473;DHT22;7322;50.872;4.386;2023-05-10T14:15:17;23.50;99.90
14473;DHT22;7322;50.872;4.386;2023-05-10T14:17:45;23.50;99.90
14473;DHT22;7322;50.872;4.386;2023-05-10T14:20:16;23.50;99.90
14473;DHT22;7322;50.872;4.386;2023-05-10T14:22:46;23.50;99.90
14473;DHT22;7322;50.872;4.386;2023-05-10T14:25:39;23.50;99.90
14473;DHT22;7322;50.872;4.386;2023-05-10T14:28:15;23.50;99.90
14473;DHT22;7322;50.872;4.386;2023-05-10T14:30:47;23.50;99.90
14473;DHT22;7322;50.872;4.386;2023-05-10T14:33:16;23.50;99.90
14473;DHT22;7322;50.872;4.386;2023-05-10T14:35:57;23.50;99.90
14473;DHT22;7322;50.872;4.386;2023-05-10T14:38:31;23.50;99.90
14473;DHT22;7322;50.872;4.386;2023-05-10T14:41:11;23.50;99.90
14473;DHT22;7322;50.872;4.386;2023-05-10T14:43:53;23.40;99.90
14473;DHT22;7322;50.872;4.386;2023-05-10T14:46:26;23.40;99.90
14473;DHT22;7322;50.872;4.386;2023-05-10T14:48:57;23.30;99.90
14473;DHT22;7322;50.872;4.386;2023-05-10T14:51:30;23.20;99.90
14473;DHT22;7322;50.872;4.386;2023-05-10T14:54:01;23.20;99.90
14473;DHT22;7322;50.872;4.386;2023-05-10T14:56:35;23.20;99.90
14473;DHT22;7322;50.872;4.386;2023-05-10T14:59:05;23.20;99.90
14473;DHT22;7322;50.872;4.386;2023-05-10T15:01:47;23.20;99.90
14473;DHT22;7322;50.872;4.386;2023-05-10T15:04:16;23.20;99.90
14473;DHT22;7322;50.872;4.386;2023-05-10T15:06:44;23.10;99.90
14473;DHT22;7322;50.872;4.386;2023-05-10T15:09:11;23.10;99.90
14473;DHT22;7322;50.872;4.386;2023-05-10T15:11:39;23.00;99.90
14473;DHT22;7322;50.872;4.386;2023-05-10T15:14:06;23.00;99.90
14473;DHT22;7322;50.872;4.386;2023-05-10T15:16:40;23.00;99.90
14473;DHT22;7322;50.872;4.386;2023-05-10T15:19:17;23.00;99.90
14473;DHT22;7322;50.872;4.386;2023-05-10T15:21:46;23.00;99.90
14473;DHT22;7322;50.872;4.386;2023-05-10T15:24:20;23.00;99.90
14473;DHT22;7322;50.872;4.386;2023-05-10T15:26:47;22.90;99.90
14473;DHT22;7322;50.872;4.386;2023-05-10T15:29:14;22.90;99.90
14473;DHT22;7322;50.872;4.386;2023-05-10T15:31:46;22.90;99.90
14473;DHT22;7322;50.872;4.386;2023-05-10T15:34:17;22.90;99.90
14473;DHT22;7322;50.872;4.386;2023-05-10T15:36:45;22.80;99.90
14473;DHT22;7322;50.872;4.386;2023-05-10T15:39:12;22.80;99.90
14473;DHT22;7322;50.872;4.386;2023-05-10T15:41:41;22.80;99.90
14473;DHT22;7322;50.872;4.386;2023-05-10T15:44:18;22.80;99.90
14473;DHT22;7322;50.872;4.386;2023-05-10T15:47:09;22.80;99.90
14473;DHT22;7322;50.872;4.386;2023-05-10T15:49:45;22.80;99.90
14473;DHT22;7322;50.872;4.386;2023-05-10T15:52:20;22.80;99.90
14473;DHT22;7322;50.872;4.386;2023-05-10T15:54:54;22.80;99.90
14473;DHT22;7322;50.872;4.386;2023-05-10T15:57:23;22.80;99.90
14473;DHT22;7322;50.872;4.386;2023-05-10T15:59:52;22.70;99.90
14473;DHT22;7322;50.872;4.386;2023-05-10T16:02:26;22.80;99.90
14473;DHT22;7322;50.872;4.386;2023-05-10T16:04:55;22.80;99.90
14473;DHT22;7322;50.872;4.386;2023-05-10T16:07:30;22.80;99.90
14473;DHT22;7322;50.872;4.386;2023-05-10T16:10:05;22.70;99.90
14473;DHT22;7322;50.872;4.386;2023-05-10T16:12:33;22.80;99.90
14473;DHT22;7322;50.872;4.386;2023-05-10T16:15:09;22.90;99.90
14473;DHT22;7322;50.872;4.386;2023-05-10T16:17:36;22.90;99.90
14473;DHT22;7322;50.872;4.386;2023-05-10T16:20:12;22.90;99.90
14473;DHT22;7322;50.872;4.386;2023-05-10T16:22:45;23.00;99.90